默认 日期 大小 文件数 浏览量 最新下载 xml
feat磁力链接相关资源由用户搜索指令自动获取,结果来源于网络,本站不存储任何资料,亦不承担任何责任,请于24小时内删除,搜索到16532个磁力,显示前4000条数据,用时4ms。
    {"darkness1.jpg": 78100, "darkness2.jpg": 53229, "darkness3.jpg": 57254, "03-nine_inch_nails_feat._bauhaus-hurt-mst.mp3": 5174785, "16-nine_inch_nails_feat._bauhaus-hurt-mst.mp3": 5999223, "04-nine_inch_nails_feat._bauhaus-dreams-mst.mp3": 7462768, "13- ...
创建时间: 2018-12-11 10:00:31 大小:93.72 MB 文件数量:22 热度:7 最近下载:2024-08-17 14:54:02
    {"readme.zip": 145581, " Ariana Grande Feat Mac Miller - The Way (2013-Single).mp3": 8920711}
创建时间: 2018-12-11 10:18:03 大小:8.65 MB 文件数量:2 热度:8 最近下载:2025-03-15 06:50:02
    {"! Torrent-Tatty Org. News 2008.pdf": 530986, "__2008-05-03 - The Billboard Hot 100 Tracks.pdf": 344236, "__2008-05-03 - The Billboard Top 200 Albums.pdf": 573709, "!__2008-05-03 - The Billboard Pop 100 Tracks.pdf": 339203, "__2008-05-03 - The Billboard ...
创建时间: 2018-12-11 10:28:04 大小:602.58 MB 文件数量:108 热度:50 最近下载:2025-08-29 12:28:03
    {"Cover.jpg": 59903, "01 - Carry Out (feat. Justin Timberlake).mp3": 5619213, "02 - Carry Out (feat. Justin Timberlake).mp3": 5164405, "03 - Carry Out (feat. Justin Timberlake).mp3": 5467517}
创建时间: 2018-12-11 10:31:52 大小:15.56 MB 文件数量:4 热度:7 最近下载:2022-04-23 06:01:41
    {"Slides.pptx": 57506, "8. UI Components": {"1. UI Components.mp4": 34527171, "7. ListView Component.mp4": 67519428, "6. TextInput Component.mp4": 52894419, "2. Reusable UI Components.mp4": 46840511, "10. Adding a Exercise Solution.mp4": 108155739, "3. ...
创建时间: 2018-12-11 11:11:51 大小:2.82 GB 文件数量:60 热度:7 最近下载:2025-02-19 04:36:03
    {"Noah Cyrus - We Are… (feat. MØ) (Single, 2018)": {"Cover.jpg": 120510, "Music Riders.jpg": 543909, "01 We Are... (feat. MØ).mp3": 8331396}}
创建时间: 2018-12-11 11:19:55 大小:8.58 MB 文件数量:3 热度:7 最近下载:2022-04-23 06:51:54
    ... TV - They Live, We Sleep feat. Payday Monsanto Music Video MP4 ...
创建时间: 2018-12-11 11:58:14 大小:18.19 MB 文件数量:6 热度:9 最近下载:2025-08-01 18:54:07
    {"artwork": {"Back.jpg": 7257899, "Front.jpg": 7130557, "Side 1.jpg": 3043954, "Side 2.jpg": 3467671, "Sleeve 1.jpg": 7216497, "Sleeve 2.jpg": 6858019}, "track.txt": 2488, "folder.jpg": 286071, "A3 Midsömmer.flac": 134868369, "B2 Bags' Groove.flac": ...
创建时间: 2018-12-11 15:38:45 大小:804.57 MB 文件数量:14 热度:13 最近下载:2025-09-19 02:15:03
    {"01 Take Over Control (Radio Edit) [f.mp3": 8960508}
创建时间: 2018-12-11 15:39:35 大小:8.55 MB 文件数量:1 热度:8 最近下载:2024-07-15 04:59:02
    {"Darkside (Feat Tech N9ne).mp3": 7040768}
创建时间: 2018-12-11 15:55:59 大小:6.71 MB 文件数量:1 热度:9 最近下载:2024-04-09 12:37:05
    {"scans": {"disc.png": 8244951, "front.png": 28807916, "matrix.png": 1453432}}
创建时间: 2018-12-11 16:04:38 大小:36.72 MB 文件数量:3 热度:13 最近下载:2025-08-23 22:05:01
    ... Mix).flac": 62414484, "Melted Artists Feat. Loleatta Holloway - Ride on Time ... Single).log": 7716, "Melted Artists Feat. Loleatta Holloway - Ride on Time ...
创建时间: 2018-12-11 17:28:52 大小:237.45 MB 文件数量:8 热度:9 最近下载:2025-01-30 08:47:02
    {"cover.jpg": 197018, "audiochecker.log": 364, "01 - Lane 8 feat. Bipolar Sunshine - I Got What You Need (Every Night).flac": 26478210}
创建时间: 2018-12-11 17:32:35 大小:25.44 MB 文件数量:3 热度:11 最近下载:2025-10-06 06:47:02
    {"cover.jpg": 57089, "01 Prologue.m4a": 6179713, "09 All Are Punished.m4a": 4762500, "03 The Balcony Scene.m4a": 19356278, "07 The Likeness of Death.m4a": 5650709, "04 Romeo & Juliet Are Wed.m4a": 6600825, "05 The Death of Mercutio and Tybalt.m4a": 7446214 ...
创建时间: 2018-12-11 17:52:46 大小:86.57 MB 文件数量:10 热度:37 最近下载:2025-08-21 08:10:02
    ... Pell - Love's Holding On (feat Bonnie Tyler) 001.jpg": 2436019 ... Pell - Love's Holding On (feat Bonnie Tyler) 002.jpg": 956408 ... Pell - Love's Holding On (feat. Bonnie Tyler).cue": 582, "Axel ... Pell - Love's Holding On (feat. Bonnie Tyler).log": 4588, "Axel ...
创建时间: 2018-12-11 18:02:08 大小:63.29 MB 文件数量:10 热度:17 最近下载:2025-08-02 14:34:06
    ... Van Buuren and Dj Shah Feat Chris Jones - Going Wrong (2008 ... Van Buuren and Dj Shah Feat Chris Jones - Going Wrong (2008 ...
创建时间: 2018-12-11 18:05:46 大小:296.04 MB 文件数量:11 热度:10 最近下载:2023-02-25 20:00:18
    {"01 Goin' In (feat. Flo Rida).mp3": 10020474}
创建时间: 2018-12-11 18:53:23 大小:9.56 MB 文件数量:1 热度:10 最近下载:2024-10-17 22:14:02
    {"01 I Give You Power (feat. Mavis Staples).m4a": 7898199}
创建时间: 2018-12-11 18:59:37 大小:7.53 MB 文件数量:1 热度:8 最近下载:2025-03-30 04:34:02
    ... -acca_adlibs_solo_dry 1.wav": 42350138, "Everybody feat. Evelyn _Champagne_ King (116 BPM ...
创建时间: 2018-12-11 20:21:41 大小:139.47 MB 文件数量:10 热度:15 最近下载:2025-10-04 19:04:03
    {"сover.jpg": 55090, "Steve Aoki - Come With Me (Deadmeat) (Jidax Remix).mp3": 14392296, "Steve Aoki - Come With Me (Deadmeat) (Deorro Remix).mp3": 12095610, "Steve Aoki - Come With Me (Deadmeat) (Doorly Remix).mp3": 12615969, "Steve Aoki - Come With Me ( ...
创建时间: 2018-12-11 21:15:13 大小:82.33 MB 文件数量:7 热度:16 最近下载:2025-09-19 04:28:08